Observations for Trim Patrick St
| Time | AQI | Temp °C | Hum % | Pres Pa | CO μg/m³ | H₂S μg/m³ | NO μg/m³ | NO₂ μg/m³ | O₃ μg/m³ | SO₂ μg/m³ | PM1 μg/m³ | PM2.5 μg/m³ | PM10 μg/m³ |
|---|---|---|---|---|---|---|---|---|---|---|---|---|---|
| Wednesday 5 August 2026 | |||||||||||||
| 19:18 | 2 | 18.4 | 57 | 72,691 | 0 | 1.13 | 2.14 | 9.08 | 71.31 | 0 | 2 | 6.71 | 7.39 |
| 19:15 | 2 | 18.5 | 56 | 72,656 | 0 | 2.46 | 2.04 | 9.18 | 70.02 | 0.28 | 2 | 6.01 | 6.61 |
| 19:12 | 2 | 18.5 | 57 | 72,585 | 0 | 1.68 | 1.82 | 7.56 | 67.3 | 0.9 | 3.71 | 8.2 | 9.02 |
| 19:11 | 2 | 18.5 | 57 | 72,581 | 0 | 2.65 | 1.82 | 7.64 | 71.78 | 1.04 | 2.86 | 6.74 | 7.41 |
| 19:10 | 2 | 18.5 | 57 | 72,576 | 0 | 2.78 | 1.81 | 7.47 | 69.14 | 0.77 | 2.86 | 7.45 | 8.19 |
| 19:06 | 2 | 18.6 | 56 | 72,430 | 0 | 0 | 1.54 | 5.27 | 62.12 | 0.28 | 2 | 6.8 | 7.48 |
| 19:05 | 2 | 18.7 | 57 | 72,536 | 0 | 0.88 | 2.3 | 6.53 | 69.78 | 1.17 | 2 | 7.45 | 8.19 |
| 19:04 | 2 | 18.7 | 56 | 72,673 | 0 | 0 | 2.03 | 6.88 | 69.67 | 0.66 | 2.86 | 8.28 | 9.11 |
| 19:03 | 2 | 18.7 | 56 | 72,793 | 0 | 0 | 2.23 | 4.36 | 61.98 | 1.04 | 2 | 7.57 | 8.33 |
| 19:02 | 2 | 18.8 | 56 | 72,895 | 0 | 0 | 2.46 | 6.62 | 66.29 | 0.81 | 2 | 6.79 | 7.46 |
| 19:01 | 2 | 18.8 | 56 | 72,958 | 0 | 0.07 | 2.63 | 5.79 | 61.61 | 0.67 | 2 | 6.8 | 7.48 |
| 19:00 | 2 | 18.9 | 58 | 73,015 | 0 | 1.59 | 2.89 | 7.57 | 71.72 | 1.26 | 2 | 6.65 | 7.31 |
| 18:59 | 2 | 18.9 | 57 | 73,121 | 0 | 0 | 2.74 | 6.49 | 64.78 | 0.85 | 2.86 | 7.48 | 8.23 |
| 18:58 | 2 | 19 | 56 | 73,261 | 0 | 0 | 2.54 | 4.99 | 60.51 | 1.01 | 2 | 6.77 | 7.45 |
| 18:57 | 2 | 19 | 58 | 73,424 | 0 | 0.85 | 3.03 | 8.21 | 80.35 | 1.65 | 2 | 5.9 | 6.49 |
| 18:56 | 2 | 19.1 | 56 | 73,601 | 0 | 0 | 2.46 | 5.92 | 62.25 | 1.51 | 2 | 7.52 | 8.28 |
| 18:55 | 2 | 19.1 | 58 | 73,841 | 0 | 0 | 2.55 | 5.39 | 60.89 | 0.86 | 2 | 5.93 | 6.53 |
| 18:54 | 2 | 19.2 | 58 | 74,098 | 0 | 0.61 | 1.97 | 5.06 | 59.53 | 1.85 | 2.86 | 7.39 | 8.13 |
| 18:53 | 2 | 19.2 | 59 | 74,342 | 0 | 4.42 | 1.95 | 11.5 | 73.37 | 2.07 | 2 | 7.33 | 8.07 |
| 18:52 | 2 | 19.3 | 60 | 74,412 | 0 | 2.81 | 1.92 | 8.82 | 72.89 | 1.9 | 2 | 6.51 | 7.16 |